createdAt,value
2019-05-02T00:00:15.023Z,1000.99
2019-05-02T00:01:15.388Z,1000.93
2019-05-02T00:02:15.303Z,1000.92
2019-05-02T00:03:15.551Z,1000.96
2019-05-02T00:04:19.999Z,1000.92
2019-05-02T00:05:16.438Z,1000.94
2019-05-02T00:06:16.219Z,1000.91
2019-05-02T00:07:20.202Z,1000.89
2019-05-02T00:08:16.958Z,1000.81
2019-05-02T00:09:17.352Z,1000.85
2019-05-02T00:10:19.925Z,1000.91
2019-05-02T00:11:17.940Z,1000.88
2019-05-02T00:12:18.354Z,1000.90
2019-05-02T00:13:18.909Z,1000.87
2019-05-02T00:14:18.989Z,1000.90
2019-05-02T00:15:18.729Z,1000.94
2019-05-02T00:16:18.990Z,1000.92
2019-05-02T00:17:20.252Z,1000.95
2019-05-02T00:18:19.725Z,1000.86
2019-05-02T00:19:19.987Z,1000.88
2019-05-02T00:20:21.293Z,1000.85
2019-05-02T00:21:20.706Z,1000.83
2019-05-02T00:22:20.994Z,1000.84
2019-05-02T00:23:22.933Z,1000.84
2019-05-02T00:24:21.245Z,1000.89
2019-05-02T00:25:21.626Z,1000.88
2019-05-02T00:26:24.530Z,1000.82
2019-05-02T00:27:22.177Z,1000.89
2019-05-02T00:28:22.434Z,1000.85
2019-05-02T00:29:23.696Z,1000.93
2019-05-02T00:30:22.948Z,1000.89
2019-05-02T00:31:23.205Z,1000.78
2019-05-02T00:32:23.734Z,1000.89
2019-05-02T00:33:23.928Z,1000.87
2019-05-02T00:34:24.378Z,1000.78
2019-05-02T00:35:24.702Z,1000.87
2019-05-02T00:36:25.193Z,1000.90
2019-05-02T00:37:26.667Z,1000.85
2019-05-02T00:38:26.077Z,1000.87
2019-05-02T00:39:25.889Z,1000.88
2019-05-02T00:40:27.736Z,1000.86
2019-05-02T00:41:26.446Z,1000.88
2019-05-02T00:42:26.813Z,1000.79
2019-05-02T00:43:28.956Z,1000.83
2019-05-02T00:44:27.392Z,1000.79
2019-05-02T00:45:27.974Z,1000.87
2019-05-02T00:46:30.318Z,1000.82
2019-05-02T00:47:27.778Z,1000.82
2019-05-02T00:48:28.320Z,1000.78
2019-05-02T00:49:30.835Z,1000.82
2019-05-02T00:50:28.686Z,1000.84
2019-05-02T00:51:29.009Z,1000.85
2019-05-02T00:52:32.865Z,1000.81
2019-05-02T00:53:29.976Z,1000.80
2019-05-02T00:54:30.325Z,1000.81
2019-05-02T00:55:33.860Z,1000.77
2019-05-02T00:56:31.042Z,1000.85
2019-05-02T00:57:31.331Z,1000.78
2019-05-02T00:58:32.166Z,1000.76
2019-05-02T00:59:31.810Z,1000.76
2019-05-02T01:00:32.062Z,1000.78
2019-05-02T01:01:32.227Z,1000.75
2019-05-02T01:02:35.968Z,1000.75
2019-05-02T01:03:32.724Z,1000.78
2019-05-02T01:04:33.168Z,1000.75
2019-05-02T01:05:38.034Z,1000.80
2019-05-02T01:06:33.928Z,1000.71
2019-05-02T01:07:34.193Z,1000.79
2019-05-02T01:08:35.608Z,1000.71
2019-05-02T01:09:34.922Z,1000.79
2019-05-02T01:10:35.281Z,1000.68
2019-05-02T01:11:35.550Z,1000.74
2019-05-02T01:12:39.829Z,1000.72
2019-05-02T01:13:36.094Z,1000.77
2019-05-02T01:14:36.565Z,1000.69
2019-05-02T01:15:39.123Z,1000.72
2019-05-02T01:17:37.074Z,1000.72
2019-05-02T01:18:41.209Z,1000.71
2019-05-02T01:19:37.713Z,1000.70
2019-05-02T01:20:37.542Z,1000.69
2019-05-02T01:21:38.937Z,1000.69
2019-05-02T01:22:38.039Z,1000.70
2019-05-02T01:23:38.057Z,1000.69
2019-05-02T01:24:39.814Z,1000.68
2019-05-02T01:25:38.948Z,1000.65
2019-05-02T01:26:39.306Z,1000.59
2019-05-02T01:27:41.280Z,1000.67
2019-05-02T01:28:39.870Z,1000.64
2019-05-02T01:29:40.046Z,1000.67
2019-05-02T01:30:42.296Z,1000.62
2019-05-02T01:31:40.144Z,1000.70
2019-05-02T01:32:40.355Z,1000.60
2019-05-02T01:33:41.812Z,1000.62
2019-05-02T01:34:40.952Z,1000.63
2019-05-02T01:35:40.993Z,1000.57
2019-05-02T01:36:42.711Z,1000.62
2019-05-02T01:37:41.882Z,1000.62
2019-05-02T01:38:42.347Z,1000.65
2019-05-02T01:39:43.062Z,1000.62
2019-05-02T01:40:42.780Z,1000.68
2019-05-02T01:41:43.564Z,1000.65
2019-05-02T01:42:44.488Z,1000.60
2019-05-02T01:43:43.915Z,1000.60
2019-05-02T01:44:43.665Z,1000.64
2019-05-02T01:45:46.577Z,1000.67
2019-05-02T01:46:44.330Z,1000.70
2019-05-02T01:47:44.945Z,1000.63
2019-05-02T01:48:45.599Z,1000.63
2019-05-02T01:49:45.794Z,1000.67
2019-05-02T01:50:46.108Z,1000.61
2019-05-02T01:51:47.669Z,1000.61
2019-05-02T01:52:46.099Z,1000.61
2019-05-02T01:53:46.320Z,1000.61
2019-05-02T01:54:47.594Z,1000.61
2019-05-02T01:55:47.145Z,1000.59
2019-05-02T01:56:47.473Z,1000.58
2019-05-02T01:57:47.971Z,1000.65
2019-05-02T01:58:48.275Z,1000.61
2019-05-02T01:59:48.444Z,1000.60
2019-05-02T02:00:48.942Z,1000.58
2019-05-02T02:01:53.155Z,1000.56
2019-05-02T02:02:49.810Z,1000.53
2019-05-02T02:03:50.052Z,1000.52
2019-05-02T02:04:52.224Z,1000.53
2019-05-02T02:05:50.748Z,1000.59
2019-05-02T02:06:50.862Z,1000.51
2019-05-02T02:07:55.554Z,1000.48
2019-05-02T02:08:51.439Z,1000.51
2019-05-02T02:09:51.762Z,1000.48
2019-05-02T02:10:56.462Z,1000.46
2019-05-02T02:11:52.460Z,1000.40
2019-05-02T02:13:03.623Z,1000.43
2019-05-02T02:13:53.343Z,1000.45
2019-05-02T02:14:55.444Z,1000.50
2019-05-02T02:15:54.147Z,1000.46
2019-05-02T02:16:54.752Z,1000.49
2019-05-02T02:17:54.968Z,1000.51
2019-05-02T02:18:58.992Z,1000.44
2019-05-02T02:19:55.468Z,1000.47
2019-05-02T02:20:55.485Z,1000.51
2019-05-02T02:21:57.586Z,1000.45
2019-05-02T02:22:55.797Z,1000.41
2019-05-02T02:23:56.034Z,1000.52
2019-05-02T02:25:00.962Z,1000.50
2019-05-02T02:25:56.526Z,1000.54
2019-05-02T02:26:56.947Z,1000.44
2019-05-02T02:27:59.651Z,1000.51
2019-05-02T02:28:57.891Z,1000.49
2019-05-02T02:29:57.895Z,1000.53
2019-05-02T02:31:04.829Z,1000.40
2019-05-02T02:31:58.227Z,1000.48
2019-05-02T02:33:00.857Z,1000.47
2019-05-02T02:33:58.942Z,1000.41
2019-05-02T02:35:03.387Z,1000.40
2019-05-02T02:35:59.406Z,1000.45
2019-05-02T02:36:59.172Z,1000.53
2019-05-02T02:37:59.671Z,1000.41
2019-05-02T02:39:00.309Z,1000.47
2019-05-02T02:40:00.140Z,1000.44
2019-05-02T02:41:00.602Z,1000.49
2019-05-02T02:42:01.068Z,1000.41
2019-05-02T02:43:13.055Z,1000.55
2019-05-02T02:44:02.894Z,1000.53
2019-05-02T02:45:01.914Z,1000.46
2019-05-02T02:46:01.932Z,1000.47
2019-05-02T02:47:01.795Z,1000.40
2019-05-02T02:48:02.692Z,1000.49
2019-05-02T02:49:02.593Z,1000.46
2019-05-02T02:50:05.146Z,1000.44
2019-05-02T02:51:02.787Z,1000.48
2019-05-02T02:53:02.849Z,1000.43
2019-05-02T02:54:05.463Z,1000.37
2019-05-02T02:55:03.050Z,1000.41
2019-05-02T02:56:03.828Z,1000.36
2019-05-02T02:57:03.323Z,1000.25
2019-05-02T02:58:04.908Z,1000.27
2019-05-02T02:59:03.626Z,1000.39
2019-05-02T03:00:07.899Z,1000.20
2019-05-02T03:01:04.099Z,1000.28
2019-05-02T03:02:09.946Z,1000.29
2019-05-02T03:03:04.209Z,1000.27
2019-05-02T03:04:09.441Z,1000.35
2019-05-02T03:05:04.215Z,1000.27
2019-05-02T03:06:07.598Z,1000.29
2019-05-02T03:07:04.903Z,1000.30
2019-05-02T03:08:06.929Z,1000.31
2019-05-02T03:09:05.602Z,1000.26
2019-05-02T03:10:06.747Z,1000.24
2019-05-02T03:11:05.963Z,1000.37
2019-05-02T03:12:06.228Z,1000.40
2019-05-02T03:13:06.304Z,1000.35
2019-05-02T03:14:09.278Z,1000.30
2019-05-02T03:15:06.602Z,1000.29
2019-05-02T03:16:09.133Z,1000.28
2019-05-02T03:17:07.159Z,1000.33
2019-05-02T03:18:07.738Z,1000.29
2019-05-02T03:19:07.936Z,1000.28
2019-05-02T03:20:08.068Z,1000.35
2019-05-02T03:21:13.253Z,1000.40
2019-05-02T03:22:08.728Z,1000.36
2019-05-02T03:23:15.281Z,1000.33
2019-05-02T03:24:09.121Z,1000.38
2019-05-02T03:25:09.693Z,1000.31
2019-05-02T03:26:14.770Z,1000.39
2019-05-02T03:27:09.963Z,1000.28
2019-05-02T03:28:17.718Z,1000.27
2019-05-02T03:29:10.694Z,1000.30
2019-05-02T03:30:29.734Z,1000.25
2019-05-02T03:31:22.909Z,1000.22
2019-05-02T03:32:16.820Z,1000.26
2019-05-02T03:33:12.478Z,1000.29
2019-05-02T03:34:11.950Z,1000.30
2019-05-02T03:35:18.359Z,1000.26
2019-05-02T03:36:26.868Z,1000.21
2019-05-02T03:37:13.987Z,1000.28
2019-05-02T03:38:13.063Z,1000.29
2019-05-02T03:39:15.427Z,1000.29
2019-05-02T03:40:13.639Z,1000.28
2019-05-02T03:41:20.746Z,1000.26
2019-05-02T03:42:14.397Z,1000.20
2019-05-02T03:43:18.987Z,1000.26
2019-05-02T03:44:25.163Z,1000.29
2019-05-02T03:45:16.081Z,1000.35
2019-05-02T03:46:20.537Z,1000.29
2019-05-02T03:47:16.041Z,1000.27
2019-05-02T03:48:18.157Z,1000.28
2019-05-02T03:49:16.766Z,1000.35
2019-05-02T03:50:16.966Z,1000.24
2019-05-02T03:51:21.699Z,1000.23
2019-05-02T03:52:17.349Z,1000.25
2019-05-02T03:53:25.071Z,1000.20
2019-05-02T03:54:19.993Z,1000.22
2019-05-02T03:55:23.749Z,1000.22
2019-05-02T03:56:18.627Z,1000.26
2019-05-02T03:57:24.689Z,1000.23
2019-05-02T03:58:19.070Z,1000.24
2019-05-02T03:59:19.523Z,1000.24
2019-05-02T04:00:21.915Z,1000.29
2019-05-02T04:01:20.497Z,1000.28
2019-05-02T04:02:21.815Z,1000.25
2019-05-02T04:03:20.810Z,1000.23
2019-05-02T04:04:22.708Z,1000.26
2019-05-02T04:05:21.473Z,1000.35
2019-05-02T04:06:23.726Z,1000.23
2019-05-02T04:07:21.755Z,1000.31
2019-05-02T04:08:22.735Z,1000.26
2019-05-02T04:09:22.361Z,1000.28
2019-05-02T04:10:22.417Z,1000.27
2019-05-02T04:11:22.734Z,1000.29
2019-05-02T04:12:22.828Z,1000.28
2019-05-02T04:13:23.061Z,1000.28
2019-05-02T04:14:36.778Z,1000.39
2019-05-02T04:15:28.808Z,1000.31
2019-05-02T04:16:24.112Z,1000.34
2019-05-02T04:17:29.085Z,1000.30
2019-05-02T04:18:24.392Z,1000.31
2019-05-02T04:19:28.703Z,1000.38
2019-05-02T04:20:25.253Z,1000.40
2019-05-02T04:21:26.507Z,1000.35
2019-05-02T04:22:25.581Z,1000.41
2019-05-02T04:23:27.623Z,1000.45
2019-05-02T04:24:29.097Z,1000.43
2019-05-02T04:25:27.841Z,1000.45
2019-05-02T04:26:26.948Z,1000.50
2019-05-02T04:27:27.933Z,1000.39
2019-05-02T04:28:27.582Z,1000.48
2019-05-02T04:29:31.293Z,1000.49
2019-05-02T04:30:28.144Z,1000.46
2019-05-02T04:31:31.407Z,1000.47
2019-05-02T04:32:28.178Z,1000.50
2019-05-02T04:33:29.073Z,1000.53
2019-05-02T04:34:29.123Z,1000.51
2019-05-02T04:35:34.868Z,1000.47
2019-05-02T04:36:29.358Z,1000.46
2019-05-02T04:37:34.522Z,1000.46
2019-05-02T04:38:39.034Z,1000.51
2019-05-02T04:39:30.156Z,1000.50
2019-05-02T04:40:35.149Z,1000.48
2019-05-02T04:41:34.101Z,1000.49
2019-05-02T04:42:31.179Z,1000.48
2019-05-02T04:43:31.050Z,1000.46
2019-05-02T04:44:44.170Z,1000.47
2019-05-02T04:45:50.955Z,1000.47
2019-05-02T04:46:32.004Z,1000.45
2019-05-02T04:47:32.419Z,1000.44
2019-05-02T04:48:34.638Z,1000.42
2019-05-02T04:49:35.722Z,1000.41
2019-05-02T04:50:33.679Z,1000.40
2019-05-02T04:51:33.702Z,1000.39
2019-05-02T04:52:40.781Z,1000.39
2019-05-02T04:53:41.057Z,1000.40
2019-05-02T04:54:34.322Z,1000.40
2019-05-02T04:55:34.561Z,1000.41
2019-05-02T04:56:39.721Z,1000.42
2019-05-02T04:57:38.125Z,1000.43
2019-05-02T04:58:39.710Z,1000.43
2019-05-02T04:59:35.648Z,1000.45
2019-05-02T05:00:35.610Z,1000.45
2019-05-02T05:01:45.400Z,1000.47
2019-05-02T05:02:39.908Z,1000.47
2019-05-02T05:03:37.684Z,1000.48
2019-05-02T05:04:41.899Z,1000.48
2019-05-02T05:05:40.240Z,1000.47
2019-05-02T05:06:38.065Z,1000.48
2019-05-02T05:07:41.158Z,1000.50
2019-05-02T05:08:38.790Z,1000.50
2019-05-02T05:09:39.864Z,1000.50
2019-05-02T05:10:41.510Z,1000.48
2019-05-02T05:11:38.702Z,1000.49
2019-05-02T05:12:41.757Z,1000.50
2019-05-02T05:13:39.459Z,1000.50
2019-05-02T05:14:43.177Z,1000.49
2019-05-02T05:15:48.520Z,1000.49
2019-05-02T05:16:45.381Z,1000.49
2019-05-02T05:17:41.214Z,1000.50
2019-05-02T05:18:43.896Z,1000.49
2019-05-02T05:19:41.989Z,1000.49
2019-05-02T05:20:45.985Z,1000.49
2019-05-02T05:21:42.221Z,1000.49
2019-05-02T05:22:44.581Z,1000.48
2019-05-02T05:23:42.390Z,1000.47
2019-05-02T05:24:42.762Z,1000.47
2019-05-02T05:25:43.363Z,1000.45
2019-05-02T05:26:43.156Z,1000.45
2019-05-02T05:27:43.630Z,1000.46
2019-05-02T05:28:44.531Z,1000.46
2019-05-02T05:29:48.025Z,1000.47
2019-05-02T05:30:46.845Z,1000.48
2019-05-02T05:31:45.455Z,1000.47
2019-05-02T05:32:47.850Z,1000.48
2019-05-02T05:33:47.865Z,1000.50
2019-05-02T05:34:47.800Z,1000.46
2019-05-02T05:35:48.838Z,1000.45
2019-05-02T05:36:48.182Z,1000.47
2019-05-02T05:37:51.214Z,1000.47
2019-05-02T05:38:47.928Z,1000.48
2019-05-02T05:39:52.460Z,1000.49
2019-05-02T05:40:50.218Z,1000.50
2019-05-02T05:41:52.353Z,1000.50
2019-05-02T05:42:48.926Z,1000.51
2019-05-02T05:43:53.420Z,1000.50
2019-05-02T05:44:49.261Z,1000.50
2019-05-02T05:45:56.048Z,1000.51
2019-05-02T05:46:49.993Z,1000.50
2019-05-02T05:47:52.455Z,1000.50
2019-05-02T05:48:50.826Z,1000.49
2019-05-02T05:49:52.265Z,1000.49
2019-05-02T05:50:51.199Z,1000.50
2019-05-02T05:51:54.524Z,1000.49
2019-05-02T05:52:52.042Z,1000.49
2019-05-02T05:53:52.277Z,1000.48
2019-05-02T05:54:52.094Z,1000.47
2019-05-02T05:55:53.556Z,1000.47
2019-05-02T05:56:52.896Z,1000.47
2019-05-02T05:57:59.508Z,1000.47
2019-05-02T05:58:53.273Z,1000.47
2019-05-02T05:59:53.384Z,1000.48
2019-05-02T06:00:55.689Z,1000.48
2019-05-02T06:01:54.480Z,1000.53
2019-05-02T06:03:01.190Z,1000.53
2019-05-02T06:03:54.741Z,1000.52
2019-05-02T06:04:59.995Z,1000.51
2019-05-02T06:05:55.237Z,1000.50
2019-05-02T06:06:59.567Z,1000.49
2019-05-02T06:07:57.450Z,1000.48
2019-05-02T06:08:55.808Z,1000.48
2019-05-02T06:09:55.784Z,1000.49
2019-05-02T06:10:56.091Z,1000.48
2019-05-02T06:11:56.682Z,1000.49
2019-05-02T06:12:56.780Z,1000.47
2019-05-02T06:13:57.078Z,1000.47
2019-05-02T06:15:01.655Z,1000.49
2019-05-02T06:16:02.716Z,1000.49
2019-05-02T06:16:58.003Z,1000.49
2019-05-02T06:18:00.088Z,1000.49
2019-05-02T06:18:58.886Z,1000.49
2019-05-02T06:19:59.319Z,1000.49
2019-05-02T06:21:03.363Z,1000.49
2019-05-02T06:21:59.979Z,1000.48
2019-05-02T06:23:01.331Z,1000.47
2019-05-02T06:24:01.062Z,1000.47
2019-05-02T06:25:01.149Z,1000.48
2019-05-02T06:26:00.998Z,1000.49
2019-05-02T06:27:01.543Z,1000.45
2019-05-02T06:28:05.279Z,1000.45
2019-05-02T06:29:01.805Z,1000.45
2019-05-02T06:30:02.373Z,1000.46
2019-05-02T06:31:07.179Z,1000.47
2019-05-02T06:32:02.561Z,1000.46
2019-05-02T06:33:02.621Z,1000.46
2019-05-02T06:34:07.109Z,1000.46
2019-05-02T06:35:02.722Z,1000.46
2019-05-02T06:36:02.951Z,1000.45
2019-05-02T06:37:03.027Z,1000.44
2019-05-02T06:38:03.136Z,1000.44
2019-05-02T06:39:03.245Z,1000.44
2019-05-02T06:41:03.478Z,1000.43
2019-05-02T06:42:04.277Z,1000.45
2019-05-02T06:43:09.260Z,1000.46
2019-05-02T06:44:04.209Z,1000.45
2019-05-02T06:45:04.202Z,1000.44
2019-05-02T06:46:15.365Z,1000.46
2019-05-02T06:47:05.714Z,1000.44
2019-05-02T06:48:05.149Z,1000.45
2019-05-02T06:49:05.464Z,1000.44
2019-05-02T06:50:05.722Z,1000.51
2019-05-02T06:51:10.936Z,1000.50
2019-05-02T06:52:06.312Z,1000.49
2019-05-02T06:53:09.762Z,1000.47
2019-05-02T06:54:07.127Z,1000.49
2019-05-02T06:55:07.391Z,1000.46
2019-05-02T06:56:12.302Z,1000.46
2019-05-02T06:57:07.942Z,1000.42
2019-05-02T06:58:08.281Z,1000.40
2019-05-02T06:59:08.086Z,1000.41
2019-05-02T07:00:08.566Z,1000.35
2019-05-02T07:01:08.931Z,1000.39
2019-05-02T07:02:08.906Z,1000.38
2019-05-02T07:03:10.095Z,1000.36
2019-05-02T07:04:09.798Z,1000.35
2019-05-02T07:05:10.023Z,1000.42
2019-05-02T07:06:10.494Z,1000.41
2019-05-02T07:07:13.115Z,1000.40
2019-05-02T07:08:13.547Z,1000.43
2019-05-02T07:09:11.850Z,1000.38
2019-05-02T07:10:11.577Z,1000.38
2019-05-02T07:11:11.833Z,1000.41
2019-05-02T07:12:14.681Z,1000.39
2019-05-02T07:13:15.073Z,1000.41
2019-05-02T07:14:14.006Z,1000.44
2019-05-02T07:15:13.494Z,1000.45
2019-05-02T07:16:29.941Z,1000.42
2019-05-02T07:17:13.434Z,1000.40
2019-05-02T07:18:13.488Z,1000.49
2019-05-02T07:19:16.392Z,1000.47
2019-05-02T07:20:13.933Z,1000.46
2019-05-02T07:21:17.357Z,1000.46
2019-05-02T07:22:14.017Z,1000.46
2019-05-02T07:23:16.198Z,1000.43
2019-05-02T07:24:14.761Z,1000.47
2019-05-02T07:25:15.354Z,1000.47
2019-05-02T07:26:20.874Z,1000.51
2019-05-02T07:27:15.990Z,1000.54
2019-05-02T07:28:16.248Z,1000.54
2019-05-02T07:29:17.152Z,1000.42
2019-05-02T07:30:17.289Z,1000.46
2019-05-02T07:31:17.294Z,1000.47
2019-05-02T07:32:19.179Z,1000.49
2019-05-02T07:33:18.055Z,1000.48
2019-05-02T07:34:18.349Z,1000.48
2019-05-02T07:35:19.404Z,1000.48
2019-05-02T07:36:19.237Z,1000.49
2019-05-02T07:37:19.691Z,1000.51
2019-05-02T07:38:25.073Z,1000.51
2019-05-02T07:39:20.269Z,1000.52
2019-05-02T07:40:20.430Z,1000.52
2019-05-02T07:41:24.086Z,1000.50
2019-05-02T07:42:21.196Z,1000.49
2019-05-02T07:43:22.406Z,1000.49
2019-05-02T07:44:21.958Z,1000.47
2019-05-02T07:45:22.185Z,1000.48
2019-05-02T07:46:22.624Z,1000.49
2019-05-02T07:47:23.132Z,1000.48
2019-05-02T07:48:23.108Z,1000.48
2019-05-02T07:49:26.620Z,1000.48
2019-05-02T07:50:23.775Z,1000.49
2019-05-02T07:51:24.237Z,1000.49
2019-05-02T07:52:24.552Z,1000.47
2019-05-02T07:53:25.006Z,1000.45
2019-05-02T07:54:26.790Z,1000.41
2019-05-02T07:55:25.584Z,1000.54
2019-05-02T07:56:26.063Z,1000.52
2019-05-02T07:57:30.526Z,1000.51
2019-05-02T07:58:26.794Z,1000.51
2019-05-02T07:59:26.907Z,1000.42
2019-05-02T08:00:27.156Z,1000.43
2019-05-02T08:01:27.459Z,1000.43
2019-05-02T08:02:27.988Z,1000.44
2019-05-02T08:03:29.329Z,1000.46
2019-05-02T08:04:28.156Z,1000.49
2019-05-02T08:05:28.447Z,1000.50
2019-05-02T08:06:35.335Z,1000.47
2019-05-02T08:07:34.214Z,1000.47
2019-05-02T08:08:31.479Z,1000.47
2019-05-02T08:09:30.086Z,1000.46
2019-05-02T08:10:30.291Z,1000.46
2019-05-02T08:11:32.247Z,1000.42
2019-05-02T08:12:30.956Z,1000.40
2019-05-02T08:13:31.604Z,1000.47
2019-05-02T08:14:34.473Z,1000.45
2019-05-02T08:15:31.942Z,1000.40
2019-05-02T08:16:32.368Z,1000.44
2019-05-02T08:17:32.797Z,1000.45
2019-05-02T08:18:33.284Z,1000.43
2019-05-02T08:19:37.464Z,1000.36
2019-05-02T08:20:33.722Z,1000.39
2019-05-02T08:21:34.235Z,1000.39
2019-05-02T08:22:34.323Z,1000.32
2019-05-02T08:23:34.995Z,1000.33
2019-05-02T08:24:37.958Z,1000.43
2019-05-02T08:25:35.739Z,1000.41
2019-05-02T08:26:36.122Z,1000.39
2019-05-02T08:27:36.702Z,1000.39
2019-05-02T08:28:36.751Z,1000.39
2019-05-02T08:29:37.002Z,1000.41
2019-05-02T08:30:40.540Z,1000.30
2019-05-02T08:31:36.896Z,1000.33
2019-05-02T08:32:37.345Z,1000.36
2019-05-02T08:33:37.771Z,1000.39
2019-05-02T08:34:38.170Z,1000.38
2019-05-02T08:35:38.605Z,1000.39
2019-05-02T08:36:38.843Z,1000.36
2019-05-02T08:37:40.948Z,1000.35
2019-05-02T08:38:39.739Z,1000.37
2019-05-02T08:39:40.236Z,1000.36
2019-05-02T08:40:42.147Z,1000.37
2019-05-02T08:41:40.870Z,1000.35
2019-05-02T08:42:41.235Z,1000.35
2019-05-02T08:43:44.950Z,1000.40
2019-05-02T08:44:50.875Z,1000.35
2019-05-02T08:45:42.008Z,1000.35
2019-05-02T08:46:46.120Z,1000.37
2019-05-02T08:47:42.714Z,1000.36
2019-05-02T08:48:43.779Z,1000.34
2019-05-02T08:49:43.327Z,1000.35
2019-05-02T08:50:43.801Z,1000.29
2019-05-02T08:51:44.047Z,1000.30
2019-05-02T08:52:44.375Z,1000.29
2019-05-02T08:53:44.818Z,1000.33
2019-05-02T08:54:45.050Z,1000.28
2019-05-02T08:55:46.698Z,1000.29
2019-05-02T08:56:45.984Z,1000.28
2019-05-02T08:57:45.820Z,1000.34
2019-05-02T08:58:49.811Z,1000.34
2019-05-02T08:59:46.786Z,1000.32
2019-05-02T09:00:47.636Z,1000.24
2019-05-02T09:01:49.397Z,1000.35
2019-05-02T09:02:47.705Z,1000.27
2019-05-02T09:03:55.227Z,1000.28
2019-05-02T09:04:58.313Z,1000.24
2019-05-02T09:05:49.015Z,1000.26
2019-05-02T09:06:53.236Z,1000.22
2019-05-02T09:07:49.646Z,1000.22
2019-05-02T09:08:51.429Z,1000.19
2019-05-02T09:09:50.397Z,1000.20
2019-05-02T09:10:50.640Z,1000.21
2019-05-02T09:12:04.838Z,1000.14
2019-05-02T09:12:52.076Z,1000.10
2019-05-02T09:13:52.586Z,1000.22
2019-05-02T09:14:52.152Z,1000.10
2019-05-02T09:15:54.163Z,1000.13
2019-05-02T09:16:52.481Z,1000.10
2019-05-02T09:17:56.443Z,1000.11
2019-05-02T09:18:54.205Z,1000.10
2019-05-02T09:20:02.413Z,1000.17
2019-05-02T09:20:56.553Z,1000.09
2019-05-02T09:21:54.604Z,1000.08
2019-05-02T09:22:56.051Z,1000.03
2019-05-02T09:23:55.558Z,1000.02
2019-05-02T09:24:55.427Z,1000.04
2019-05-02T09:25:55.680Z,1000.03
2019-05-02T09:26:55.959Z,999.95
2019-05-02T09:27:56.195Z,999.97
2019-05-02T09:29:01.704Z,999.88
2019-05-02T09:29:56.747Z,999.95
2019-05-02T09:30:57.259Z,999.90
2019-05-02T09:31:57.106Z,999.92
2019-05-02T09:33:02.833Z,999.94
2019-05-02T09:33:57.623Z,999.94
2019-05-02T09:35:02.360Z,999.90
2019-05-02T09:35:57.947Z,999.86
2019-05-02T09:36:58.468Z,999.85
2019-05-02T09:37:58.221Z,999.88
2019-05-02T09:38:58.696Z,999.89
2019-05-02T09:39:59.133Z,999.92
2019-05-02T09:40:59.392Z,999.88
2019-05-02T09:42:02.026Z,999.89
2019-05-02T09:43:02.756Z,999.84
2019-05-02T09:44:00.387Z,999.81
2019-05-02T09:45:02.961Z,999.82
2019-05-02T09:46:02.549Z,999.79
2019-05-02T09:47:02.347Z,999.77
2019-05-02T09:48:05.187Z,999.67
2019-05-02T09:49:02.468Z,999.72
2019-05-02T09:50:02.783Z,999.75
2019-05-02T09:51:04.607Z,999.69
2019-05-02T09:52:03.391Z,999.75
2019-05-02T09:53:02.015Z,999.75
2019-05-02T09:54:06.230Z,999.65
2019-05-02T09:55:02.816Z,999.53
2019-05-02T09:56:02.348Z,999.66
2019-05-02T09:57:02.866Z,999.61
2019-05-02T09:58:02.824Z,999.67
2019-05-02T09:59:22.756Z,999.66
2019-05-02T10:00:02.604Z,999.66
2019-05-02T10:01:03.053Z,999.65
2019-05-02T10:02:03.312Z,999.56
2019-05-02T10:03:03.270Z,999.66
2019-05-02T10:04:03.851Z,999.49
2019-05-02T10:05:03.898Z,999.53
2019-05-02T10:06:03.967Z,999.55
2019-05-02T10:07:03.998Z,999.53
2019-05-02T10:08:07.323Z,999.59
2019-05-02T10:09:04.423Z,999.51
2019-05-02T10:10:06.566Z,999.49
2019-05-02T10:11:04.835Z,999.60
2019-05-02T10:12:05.314Z,999.52
2019-05-02T10:13:05.720Z,999.53
2019-05-02T10:14:06.139Z,999.50
2019-05-02T10:15:06.397Z,999.60
2019-05-02T10:16:06.956Z,999.50
2019-05-02T10:17:07.596Z,999.44
2019-05-02T10:18:11.378Z,999.50
2019-05-02T10:19:10.815Z,999.46
2019-05-02T10:20:08.467Z,999.47
2019-05-02T10:21:12.745Z,999.50
2019-05-02T10:22:08.965Z,999.52
2019-05-02T10:23:14.096Z,999.40
2019-05-02T10:24:09.330Z,999.44
2019-05-02T10:25:11.654Z,999.38
2019-05-02T10:26:12.900Z,999.47
2019-05-02T10:27:12.507Z,999.46
2019-05-02T10:28:12.811Z,999.37
2019-05-02T10:29:12.763Z,999.36
2019-05-02T10:30:15.393Z,999.28
2019-05-02T10:31:12.679Z,999.30
2019-05-02T10:32:13.012Z,999.27
2019-05-02T10:33:12.263Z,999.35
2019-05-02T10:34:16.313Z,999.22
2019-05-02T10:35:13.007Z,999.24
2019-05-02T10:36:19.550Z,999.18
2019-05-02T10:37:13.306Z,999.17
2019-05-02T10:38:15.160Z,999.17
2019-05-02T10:39:15.864Z,999.23
2019-05-02T10:40:17.157Z,999.07
2019-05-02T10:41:13.985Z,999.06
2019-05-02T10:42:14.504Z,999.14
2019-05-02T10:43:14.275Z,999.10
2019-05-02T10:44:14.686Z,999.09
2019-05-02T10:45:16.707Z,999.12
2019-05-02T10:46:14.970Z,999.07
2019-05-02T10:47:15.177Z,999.21
2019-05-02T10:48:24.764Z,999.16
2019-05-02T10:49:16.090Z,999.15
2019-05-02T10:50:16.512Z,999.05
2019-05-02T10:51:16.313Z,999.16
2019-05-02T10:52:21.555Z,999.16
2019-05-02T10:53:17.411Z,999.07
2019-05-02T10:54:20.532Z,999.09
2019-05-02T10:55:17.534Z,999.05
2019-05-02T10:56:17.576Z,999.08
2019-05-02T10:57:17.563Z,999.09
2019-05-02T10:58:17.306Z,999.06
2019-05-02T10:59:17.714Z,999.08
2019-05-02T11:00:18.401Z,999.07
2019-05-02T11:01:18.147Z,998.98
2019-05-02T11:02:18.784Z,999.05
2019-05-02T11:03:18.582Z,998.99
2019-05-02T11:04:18.872Z,999.02
2019-05-02T11:05:22.517Z,998.99
2019-05-02T11:06:19.125Z,999.00
2019-05-02T11:07:22.643Z,998.92
2019-05-02T11:08:19.911Z,998.98
2019-05-02T11:09:24.586Z,998.88
2019-05-02T11:10:21.779Z,999.02
2019-05-02T11:11:21.905Z,998.92
2019-05-02T11:12:25.591Z,998.93
2019-05-02T11:13:21.756Z,998.84
2019-05-02T11:14:22.529Z,998.88
2019-05-02T11:15:22.096Z,998.94
2019-05-02T11:16:22.329Z,998.90
2019-05-02T11:17:22.758Z,998.83
2019-05-02T11:18:39.198Z,998.96
2019-05-02T11:19:22.974Z,998.84
2019-05-02T11:20:23.242Z,998.76
2019-05-02T11:21:23.555Z,998.88
2019-05-02T11:23:23.843Z,998.78
2019-05-02T11:24:23.882Z,998.77
2019-05-02T11:25:24.179Z,998.77
2019-05-02T11:26:25.196Z,998.75
2019-05-02T11:27:25.036Z,998.76
2019-05-02T11:28:25.705Z,998.72
2019-05-02T11:29:25.961Z,998.69
2019-05-02T11:30:26.714Z,998.68
2019-05-02T11:31:26.518Z,998.67
2019-05-02T11:32:27.057Z,998.54
2019-05-02T11:33:27.298Z,998.61
2019-05-02T11:34:27.783Z,998.60
2019-05-02T11:35:28.037Z,998.56
2019-05-02T11:36:28.555Z,998.58
2019-05-02T11:37:28.296Z,998.51
2019-05-02T11:38:29.088Z,998.50
2019-05-02T11:39:37.762Z,998.53
2019-05-02T11:40:29.077Z,998.50
2019-05-02T11:41:31.576Z,998.50
2019-05-02T11:42:29.987Z,998.53
2019-05-02T11:43:29.971Z,998.52
2019-05-02T11:44:32.451Z,998.38
2019-05-02T11:45:32.327Z,998.49
2019-05-02T11:46:32.837Z,998.48
2019-05-02T11:47:32.837Z,998.56
2019-05-02T11:48:32.004Z,998.44
2019-05-02T11:49:32.127Z,998.56
2019-05-02T11:50:35.427Z,998.42
2019-05-02T11:51:32.888Z,998.40
2019-05-02T11:52:37.215Z,998.38
2019-05-02T11:53:33.043Z,998.41
2019-05-02T11:54:33.287Z,998.37
2019-05-02T11:55:33.672Z,998.44
2019-05-02T11:56:33.898Z,998.44
2019-05-02T11:57:34.148Z,998.40
2019-05-02T11:58:34.537Z,998.43
2019-05-02T11:59:34.784Z,998.48
2019-05-02T12:00:35.213Z,998.50
2019-05-02T12:01:39.519Z,998.45
2019-05-02T12:02:35.557Z,998.49
2019-05-02T12:03:37.090Z,998.45
2019-05-02T12:04:36.460Z,998.45
2019-05-02T12:05:39.314Z,998.42
2019-05-02T12:06:37.306Z,998.39
2019-05-02T12:07:37.703Z,998.39
2019-05-02T12:08:39.366Z,998.40
2019-05-02T12:09:38.421Z,998.41
2019-05-02T12:10:38.667Z,998.35
2019-05-02T12:11:38.934Z,998.41
2019-05-02T12:12:39.459Z,998.41
2019-05-02T12:13:39.263Z,998.39
2019-05-02T12:14:39.552Z,998.31
2019-05-02T12:15:42.112Z,998.28
2019-05-02T12:16:40.149Z,998.42
2019-05-02T12:17:41.957Z,998.46